Time;durP1;ratioP1;P1;durP2;ratioP2;P2;SDS_P1;SDS_P2;PMS_P1;PMS_P2;Temp;Humidity;BMP_temperature;BMP_pressure;BME280_temperature;BME280_humidity;BME280_pressure;Samples;Min_cycle;Max_cycle;Signal;HPM_P1;HPM_P2
2021/11/08 00:01:55;;;;;;;12.40;5.83;;;;;;;4.74;100.00;96538.91;5039968;28;20029;-74
2021/11/08 00:04:27;;;;;;;15.90;5.85;;;;;;;4.63;100.00;96531.91;5001867;28;20056;-73
2021/11/08 00:06:52;;;;;;;12.83;5.67;;;;;;;4.56;100.00;96533.31;5015562;28;20490;-72
2021/11/08 00:09:19;;;;;;;14.03;5.33;;;;;;;4.47;100.00;96532.22;5016336;28;20026;-72
2021/11/08 00:11:45;;;;;;;10.33;6.40;;;;;;;4.46;100.00;96535.78;5025689;28;20071;-72
2021/11/08 00:14:15;;;;;;;15.27;6.17;;;;;;;4.57;100.00;96547.16;5033111;28;20030;-72
2021/11/08 00:16:51;;;;;;;14.50;6.43;;;;;;;4.59;100.00;96545.25;5025522;28;20136;-72
2021/11/08 00:19:46;;;;;;;18.70;6.83;;;;;;;4.63;100.00;96537.13;5006168;28;20071;-72
2021/11/08 00:22:03;;;;;;;17.53;6.83;;;;;;;4.53;100.00;96545.72;5041856;28;20118;-72
2021/11/08 00:24:31;;;;;;;11.37;5.93;;;;;;;4.53;100.00;96538.75;5038246;28;20025;-74
2021/11/08 00:26:59;;;;;;;11.80;5.57;;;;;;;4.31;100.00;96551.69;5015526;28;20060;-74
2021/11/08 00:29:25;;;;;;;11.90;5.60;;;;;;;4.34;100.00;96544.50;5034241;28;20022;-74
2021/11/08 00:31:51;;;;;;;14.27;6.50;;;;;;;4.27;100.00;96548.50;5018151;28;20052;-74
2021/11/08 00:34:17;;;;;;;12.17;5.40;;;;;;;4.19;100.00;96553.41;5024517;28;20051;-74
2021/11/08 00:36:43;;;;;;;14.20;6.87;;;;;;;4.13;100.00;96548.69;5006604;28;20041;-74
2021/11/08 00:39:09;;;;;;;15.17;7.17;;;;;;;4.16;100.00;96548.47;5033210;28;20449;-74
2021/11/08 00:41:35;;;;;;;15.40;6.67;;;;;;;4.19;100.00;96554.25;5000659;28;20042;-73
2021/11/08 00:44:02;;;;;;;14.30;6.77;;;;;;;4.18;100.00;96556.97;5032644;28;20033;-74
2021/11/08 00:46:28;;;;;;;13.90;7.27;;;;;;;4.13;100.00;96553.88;5012189;28;20124;-73
2021/11/08 00:48:54;;;;;;;13.83;6.60;;;;;;;4.11;100.00;96548.78;5033728;28;20136;-74
2021/11/08 00:51:20;;;;;;;14.50;6.30;;;;;;;4.01;100.00;96552.97;5040830;28;20519;-73
2021/11/08 00:53:46;;;;;;;14.70;5.73;;;;;;;3.92;100.00;96557.09;5024190;28;20037;-73
2021/11/08 00:56:17;;;;;;;18.70;6.80;;;;;;;3.92;100.00;96564.03;5014985;28;20041;-73
2021/11/08 00:58:44;;;;;;;14.50;6.23;;;;;;;3.93;100.00;96566.56;5017736;28;20072;-73
2021/11/08 01:01:17;;;;;;;17.57;7.83;;;;;;;3.90;100.00;96560.75;4998321;28;20033;-73
2021/11/08 01:03:44;;;;;;;14.40;6.20;;;;;;;3.92;100.00;96557.09;5027891;28;20037;-73
2021/11/08 01:06:13;;;;;;;13.00;6.27;;;;;;;3.90;100.00;96564.16;5023608;28;20040;-71
2021/11/08 01:08:40;;;;;;;17.37;6.17;;;;;;;3.87;100.00;96566.16;5018742;28;20117;-72
2021/11/08 01:11:06;;;;;;;14.23;6.53;;;;;;;3.87;100.00;96572.19;4992683;28;20071;-73
2021/11/08 01:13:33;;;;;;;10.67;6.00;;;;;;;3.77;100.00;96574.63;5022123;28;20522;-74
2021/11/08 01:16:00;;;;;;;17.07;6.40;;;;;;;3.71;100.00;96574.22;5033484;28;20018;-73
2021/11/08 01:18:26;;;;;;;14.70;6.27;;;;;;;3.64;100.00;96567.78;5031961;28;20037;-73
2021/11/08 01:20:53;;;;;;;12.07;6.60;;;;;;;3.61;100.00;96579.22;5026206;28;20025;-73
2021/11/08 01:23:27;;;;;;;13.90;6.90;;;;;;;3.60;100.00;96580.19;5021064;28;20033;-74
2021/11/08 01:26:01;;;;;;;13.43;6.50;;;;;;;3.47;100.00;96582.81;5018380;28;20687;-73
2021/11/08 01:28:33;;;;;;;13.93;5.63;;;;;;;3.38;100.00;96578.22;5021198;28;20047;-73
2021/11/08 01:30:59;;;;;;;16.27;5.87;;;;;;;3.39;100.00;96574.72;5020855;28;20060;-73
2021/11/08 01:33:26;;;;;;;13.73;5.67;;;;;;;3.36;100.00;96577.53;5017250;28;20116;-73
2021/11/08 01:36:14;;;;;;;11.97;5.63;;;;;;;3.34;100.00;96578.56;4998784;28;20475;-74
2021/11/08 01:41:08;;;;;;;11.93;6.23;;;;;;;3.30;100.00;96590.94;5020587;28;20040;-73
2021/11/08 01:43:34;;;;;;;16.40;7.17;;;;;;;3.30;100.00;96593.53;5017167;28;20037;-73
2021/11/08 01:46:01;;;;;;;15.13;6.43;;;;;;;3.27;100.00;96599.78;5028235;28;20383;-74
2021/11/08 01:48:28;;;;;;;18.27;7.23;;;;;;;3.23;100.00;96592.31;5035200;28;20036;-73
2021/11/08 01:50:54;;;;;;;16.97;8.00;;;;;;;3.19;100.00;96589.09;5016775;28;20034;-74
2021/11/08 01:53:22;;;;;;;16.63;8.23;;;;;;;3.14;100.00;96590.31;5043488;28;20437;-73
2021/11/08 01:55:48;;;;;;;15.60;7.93;;;;;;;3.13;100.00;96588.69;5014762;28;20158;-74
2021/11/08 01:58:15;;;;;;;13.90;7.07;;;;;;;3.17;100.00;96587.53;5029309;28;20045;-74
2021/11/08 02:00:41;;;;;;;19.00;8.77;;;;;;;3.14;100.00;96591.16;5028277;28;20029;-74
2021/11/08 02:03:06;;;;;;;22.00;10.73;;;;;;;3.15;100.00;96607.56;5000627;28;20116;-74
2021/11/08 02:05:32;;;;;;;22.83;10.37;;;;;;;3.10;100.00;96604.47;5006054;28;20116;-73
2021/11/08 02:07:58;;;;;;;21.70;8.70;;;;;;;3.11;100.00;96603.53;5026287;28;20030;-73
2021/11/08 02:10:24;;;;;;;21.47;7.83;;;;;;;3.01;100.00;96598.13;5007284;28;20029;-74
2021/11/08 02:12:50;;;;;;;16.87;6.70;;;;;;;2.98;100.00;96608.72;5025089;28;20403;-74
2021/11/08 02:15:20;;;;;;;11.23;6.93;;;;;;;2.93;100.00;96609.03;4997118;28;20384;-73
2021/11/08 02:17:47;;;;;;;16.23;7.37;;;;;;;2.91;100.00;96604.88;5018110;28;20116;-74
2021/11/08 02:20:20;;;;;;;14.13;6.70;;;;;;;2.89;100.00;96606.75;5019221;28;20033;-74
2021/11/08 02:22:49;;;;;;;19.77;7.90;;;;;;;2.84;100.00;96599.25;5015544;28;20034;-74
2021/11/08 02:25:17;;;;;;;16.80;7.03;;;;;;;2.86;100.00;96601.75;5023379;28;20525;-73
2021/11/08 02:27:43;;;;;;;17.63;7.77;;;;;;;2.86;100.00;96602.59;5034825;28;20029;-74
2021/11/08 02:30:11;;;;;;;12.73;6.90;;;;;;;2.84;100.00;96601.84;5026386;28;20116;-73
2021/11/08 02:32:39;;;;;;;13.47;7.00;;;;;;;2.79;100.00;96593.56;5017824;28;20478;-73
2021/11/08 02:35:07;;;;;;;21.23;8.60;;;;;;;2.79;100.00;96599.56;5017941;28;20521;-74
2021/11/08 02:37:33;;;;;;;16.97;6.60;;;;;;;2.74;100.00;96601.63;5015435;28;20053;-73
2021/11/08 02:40:01;;;;;;;14.60;6.83;;;;;;;2.79;100.00;96602.16;5034955;28;20037;-73
2021/11/08 02:42:27;;;;;;;26.10;7.43;;;;;;;2.81;100.00;96602.06;5046276;28;20617;-73
2021/11/08 02:44:55;;;;;;;20.27;8.40;;;;;;;2.81;100.00;96602.06;5017808;28;20063;-73
2021/11/08 02:47:22;;;;;;;21.27;8.63;;;;;;;2.72;100.00;96605.28;5034154;28;20502;-73
2021/11/08 02:49:50;;;;;;;19.67;8.67;;;;;;;2.67;100.00;96607.34;5039937;28;20037;-72
2021/11/08 02:52:19;;;;;;;14.70;7.43;;;;;;;2.67;100.00;96612.53;5052847;28;20610;-71
2021/11/08 02:54:48;;;;;;;16.13;7.90;;;;;;;2.64;100.00;96604.94;5043624;28;20034;-72
2021/11/08 02:57:14;;;;;;;17.43;8.20;;;;;;;2.58;100.00;96620.00;4993345;28;20041;-72
2021/11/08 02:59:40;;;;;;;16.50;8.60;;;;;;;2.56;100.00;96613.25;5040993;28;20029;-72
2021/11/08 03:02:08;;;;;;;15.27;8.10;;;;;;;2.62;100.00;96609.44;5053468;28;20044;-73
2021/11/08 03:04:43;;;;;;;17.43;7.13;;;;;;;2.59;100.00;96608.69;5037256;28;20082;-73
2021/11/08 03:07:10;;;;;;;15.60;7.73;;;;;;;2.58;100.00;96611.34;5003973;28;20068;-73
2021/11/08 03:09:43;;;;;;;18.80;7.50;;;;;;;2.53;100.00;96614.28;5033091;28;20033;-73
2021/11/08 03:12:11;;;;;;;14.73;7.33;;;;;;;2.55;100.00;96619.38;5044679;28;20131;-73
2021/11/08 03:14:56;;;;;;;21.40;7.20;;;;;;;2.52;100.00;96615.22;5031497;28;20041;-74
2021/11/08 03:17:24;;;;;;;18.83;7.50;;;;;;;2.54;100.00;96617.69;5040830;28;20030;-73
2021/11/08 03:19:51;;;;;;;14.83;6.70;;;;;;;2.58;100.00;96616.56;5040849;28;20037;-73
2021/11/08 03:22:19;;;;;;;15.80;7.23;;;;;;;2.63;100.00;96622.28;5032429;28;20052;-74
2021/11/08 03:24:54;;;;;;;16.73;8.57;;;;;;;2.68;100.00;96624.56;5028486;28;20399;-73
2021/11/08 03:29:51;;;;;;;14.97;7.47;;;;;;;2.77;100.00;96626.56;5045860;28;20486;-72
2021/11/08 03:32:19;;;;;;;16.60;7.90;;;;;;;2.83;100.00;96632.19;5028402;28;20040;-73
2021/11/08 03:35:04;;;;;;;20.30;8.93;;;;;;;2.85;100.00;96626.91;5021238;28;20069;-72
2021/11/08 03:37:36;;;;;;;23.73;8.20;;;;;;;2.92;100.00;96625.56;5044911;28;20044;-73
2021/11/08 03:40:04;;;;;;;20.43;8.20;;;;;;;2.93;100.00;96623.78;5029044;28;20036;-72
2021/11/08 03:42:30;;;;;;;17.77;8.37;;;;;;;2.98;100.00;96621.72;5030620;28;20056;-72
2021/11/08 03:44:55;;;;;;;17.33;8.53;;;;;;;2.98;100.00;96627.72;5036791;28;20037;-72
2021/11/08 03:47:21;;;;;;;17.93;7.70;;;;;;;2.97;100.00;96625.25;5026220;28;20021;-72
2021/11/08 03:49:47;;;;;;;20.57;8.50;;;;;;;2.94;100.00;96623.69;5021254;28;20048;-73
2021/11/08 03:52:13;;;;;;;19.97;8.40;;;;;;;2.99;100.00;96616.44;5042512;28;20030;-74
2021/11/08 03:54:39;;;;;;;17.13;8.00;;;;;;;2.93;100.00;96619.44;5048974;28;20033;-73
2021/11/08 03:57:06;;;;;;;20.77;8.50;;;;;;;2.87;100.00;96625.03;5025085;28;20490;-73
2021/11/08 03:59:32;;;;;;;21.87;9.00;;;;;;;2.88;100.00;96636.25;5016128;28;20458;-74
2021/11/08 04:01:57;;;;;;;21.47;8.40;;;;;;;2.87;100.00;96640.59;5039358;28;20076;-73
2021/11/08 04:04:23;;;;;;;21.90;9.50;;;;;;;2.91;100.00;96634.28;5041403;28;20067;-74
2021/11/08 04:06:49;;;;;;;15.33;9.17;;;;;;;2.89;100.00;96641.34;5001597;28;20040;-73
2021/11/08 04:09:17;;;;;;;17.00;9.10;;;;;;;2.87;100.00;96644.97;5002001;28;20046;-73
2021/11/08 04:11:44;;;;;;;21.10;10.37;;;;;;;2.86;100.00;96654.53;5016017;28;20080;-73
2021/11/08 04:14:11;;;;;;;27.20;11.90;;;;;;;2.94;100.00;96654.84;5022797;28;20032;-73
2021/11/08 04:16:42;;;;;;;19.17;10.07;;;;;;;2.94;100.00;96652.25;5010051;28;20272;-73
2021/11/08 04:19:09;;;;;;;19.77;9.00;;;;;;;2.96;100.00;96650.41;5026590;28;20033;-73
2021/11/08 04:21:36;;;;;;;20.63;10.07;;;;;;;2.99;100.00;96649.38;5009259;28;20725;-74
2021/11/08 04:24:04;;;;;;;24.33;9.57;;;;;;;3.09;100.00;96657.38;5024607;28;20695;-73
2021/11/08 04:26:32;;;;;;;20.43;9.43;;;;;;;3.08;100.00;96653.94;5037055;28;20038;-71
2021/11/08 04:29:02;;;;;;;21.57;9.30;;;;;;;3.09;100.00;96660.00;5045059;28;20037;-72
2021/11/08 04:31:29;;;;;;;28.30;9.87;;;;;;;3.15;100.00;96659.53;5026266;28;20033;-73
2021/11/08 04:34:02;;;;;;;18.10;9.07;;;;;;;3.16;100.00;96656.88;5028150;28;20083;-73
2021/11/08 04:42:00;;;;;;;20.93;8.97;;;;;;;3.25;100.00;96665.78;5025806;28;20030;-72
2021/11/08 04:44:46;;;;;;;19.93;10.20;;;;;;;3.29;100.00;96652.50;5020840;28;20033;-72
2021/11/08 04:52:38;;;;;;;23.50;9.13;;;;;;;3.29;100.00;96662.06;5019906;28;20033;-73
2021/11/08 04:55:25;;;;;;;26.57;10.77;;;;;;;3.25;100.00;96660.59;5020612;28;20041;-72
2021/11/08 05:30:36;;;;;;;14.63;7.67;;;;;;;3.00;100.00;96683.03;5032048;28;20030;-74
2021/11/08 05:33:03;;;;;;;14.17;6.97;;;;;;;2.97;100.00;96680.63;5001586;28;20041;-73
2021/11/08 05:35:29;;;;;;;11.10;6.23;;;;;;;2.97;100.00;96683.22;5008063;28;20041;-74
2021/11/08 05:37:56;;;;;;;11.47;6.87;;;;;;;3.04;100.00;96679.28;5039371;28;20056;-73
2021/11/08 05:40:29;;;;;;;13.80;8.10;;;;;;;3.01;100.00;96681.25;5009795;28;20033;-72
2021/11/08 05:42:55;;;;;;;15.23;7.57;;;;;;;3.10;100.00;96687.63;5033252;28;20040;-72
2021/11/08 05:45:21;;;;;;;19.30;7.97;;;;;;;3.10;100.00;96685.03;5024279;28;20475;-73
2021/11/08 05:47:48;;;;;;;15.47;7.93;;;;;;;3.13;100.00;96680.47;5005240;28;20104;-73
2021/11/08 05:50:17;;;;;;;14.87;7.70;;;;;;;3.20;100.00;96678.28;5013043;28;20092;-73
2021/11/08 05:52:46;;;;;;;20.87;9.33;;;;;;;3.27;100.00;96687.31;5017578;28;20125;-73
2021/11/08 05:55:12;;;;;;;19.30;8.13;;;;;;;3.25;100.00;96689.19;5020651;28;20773;-73
2021/11/08 06:01:50;;;;;;;21.37;7.40;;;;;;;3.24;100.00;96692.72;5012870;28;20045;-72
2021/11/08 06:50:12;;;;;;;18.77;8.30;;;;;;;2.80;100.00;96735.47;5020656;28;20040;-73
2021/11/08 06:52:39;;;;;;;21.87;11.13;;;;;;;2.74;100.00;96734.06;5040366;28;20080;-74
2021/11/08 06:55:06;;;;;;;34.00;17.97;;;;;;;2.70;100.00;96736.97;5032966;28;20038;-72
2021/11/08 06:57:45;;;;;;;21.77;8.47;;;;;;;2.82;100.00;96738.81;5029513;28;20029;-73
2021/11/08 07:00:13;;;;;;;24.60;8.70;;;;;;;2.91;100.00;96733.00;5001148;28;20025;-73
2021/11/08 07:02:38;;;;;;;17.77;7.83;;;;;;;3.00;100.00;96742.78;5010221;28;20160;-73
2021/11/08 07:05:04;;;;;;;22.50;8.33;;;;;;;2.96;100.00;96746.53;5017017;28;20747;-74
2021/11/08 07:07:30;;;;;;;20.53;8.10;;;;;;;3.15;100.00;96753.09;5021414;28;20028;-73
2021/11/08 07:09:56;;;;;;;17.43;9.00;;;;;;;3.24;100.00;96753.34;5011170;28;20035;-73
2021/11/08 07:12:23;;;;;;;26.20;10.97;;;;;;;3.43;100.00;96762.53;4999249;28;20033;-73
2021/11/08 07:14:49;;;;;;;27.63;12.30;;;;;;;3.52;100.00;96752.34;5035080;28;20453;-74
2021/11/08 07:17:15;;;;;;;26.07;11.27;;;;;;;3.58;100.00;96758.06;4997889;28;20040;-73
2021/11/08 07:19:41;;;;;;;24.50;10.57;;;;;;;3.71;100.00;96759.72;5037506;28;20120;-72
2021/11/08 07:22:07;;;;;;;27.67;9.47;;;;;;;3.71;100.00;96756.28;5039144;28;20034;-73
2021/11/08 07:24:33;;;;;;;19.60;9.17;;;;;;;3.89;100.00;96756.78;5045312;28;20514;-73
2021/11/08 07:27:00;;;;;;;22.60;11.37;;;;;;;4.15;100.00;96762.81;5032930;28;20414;-73
2021/11/08 07:29:28;;;;;;;29.47;11.70;;;;;;;4.25;100.00;96761.22;5046450;28;20466;-73
2021/11/08 07:31:54;;;;;;;24.87;13.37;;;;;;;4.68;100.00;96766.84;5043705;28;20061;-73
2021/11/08 07:34:21;;;;;;;44.23;23.10;;;;;;;4.99;100.00;96769.00;5025219;28;20029;-73
2021/11/08 07:36:47;;;;;;;28.97;14.93;;;;;;;5.28;100.00;96772.94;5019516;28;20074;-73
2021/11/08 07:39:14;;;;;;;15.90;8.23;;;;;;;5.61;100.00;96759.16;5027728;28;20393;-73
2021/11/08 07:41:40;;;;;;;19.03;8.30;;;;;;;5.82;100.00;96761.91;5034094;28;20037;-75
2021/11/08 07:44:07;;;;;;;17.77;8.10;;;;;;;6.45;100.00;96759.69;5025935;28;20497;-73
2021/11/08 07:46:33;;;;;;;15.13;7.40;;;;;;;6.61;100.00;96761.94;5028104;28;20065;-73
2021/11/08 07:48:59;;;;;;;15.03;7.17;;;;;;;6.89;100.00;96757.09;5012587;28;20056;-73
2021/11/08 07:51:25;;;;;;;17.33;7.30;;;;;;;7.35;100.00;96748.13;5048962;28;20211;-73
2021/11/08 07:53:51;;;;;;;14.23;6.63;;;;;;;7.68;100.00;96754.94;5020111;28;20025;-73
2021/11/08 07:56:17;;;;;;;19.80;6.90;;;;;;;7.41;100.00;96750.22;5027338;28;20036;-73
2021/11/08 07:58:44;;;;;;;20.77;6.97;;;;;;;6.96;100.00;96745.19;5020802;28;20033;-72
2021/11/08 08:01:10;;;;;;;16.83;6.43;;;;;;;7.37;100.00;96756.66;5013613;28;20080;-73
2021/11/08 08:03:36;;;;;;;14.47;6.17;;;;;;;6.94;100.00;96750.56;5038077;28;20040;-72
2021/11/08 08:06:04;;;;;;;18.03;6.67;;;;;;;6.68;100.00;96755.25;5036051;28;20040;-72
2021/11/08 08:08:31;;;;;;;16.40;7.27;;;;;;;6.34;100.00;96750.09;5023534;28;20041;-72
2021/11/08 08:10:57;;;;;;;17.27;7.27;;;;;;;6.50;100.00;96754.09;5034493;28;20064;-72
2021/11/08 08:13:27;;;;;;;19.67;6.80;;;;;;;7.48;100.00;96749.59;5037004;28;20029;-72
2021/11/08 08:15:58;;;;;;;17.30;6.67;;;;;;;8.46;98.54;96745.72;5033969;28;20318;-72
2021/11/08 08:18:25;;;;;;;18.03;5.93;;;;;;;9.16;95.40;96739.47;5030244;28;20048;-72
2021/11/08 08:20:51;;;;;;;13.87;5.80;;;;;;;9.41;91.47;96742.50;5030884;28;20051;-72
2021/11/08 08:23:17;;;;;;;16.13;6.67;;;;;;;9.36;88.51;96744.72;4998887;28;20029;-73
2021/11/08 08:25:44;;;;;;;18.67;6.03;;;;;;;9.30;89.63;96742.66;5005154;28;20643;-72
2021/11/08 08:28:11;;;;;;;11.93;5.77;;;;;;;9.81;89.92;96739.66;5032655;28;20117;-72
2021/11/08 08:30:37;;;;;;;14.73;5.27;;;;;;;10.05;84.16;96740.97;5011224;28;20025;-73
2021/11/08 08:33:03;;;;;;;17.77;6.07;;;;;;;10.28;83.55;96744.09;5028617;28;21106;-74
2021/11/08 08:35:28;;;;;;;12.63;6.63;;;;;;;9.64;85.91;96749.09;5015535;28;20108;-73
2021/11/08 08:37:55;;;;;;;12.97;5.43;;;;;;;11.37;80.57;96734.44;5025709;28;20044;-74
2021/11/08 08:40:21;;;;;;;14.73;5.87;;;;;;;10.59;82.65;96745.47;5021951;28;20035;-74
2021/11/08 08:42:47;;;;;;;11.83;5.80;;;;;;;11.54;80.88;96741.47;5031610;28;20029;-74
2021/11/08 08:45:13;;;;;;;14.37;5.50;;;;;;;11.38;79.20;96743.97;5024955;28;20028;-74
2021/11/08 08:47:39;;;;;;;15.80;5.33;;;;;;;10.78;78.93;96738.47;5015100;28;20123;-74
2021/11/08 08:50:06;;;;;;;11.40;5.17;;;;;;;9.91;86.61;96744.91;5036634;28;20021;-74
2021/11/08 08:52:33;;;;;;;14.07;4.93;;;;;;;10.39;83.09;96746.53;5013894;28;20027;-73
2021/11/08 08:54:58;;;;;;;14.03;5.30;;;;;;;10.74;78.33;96747.63;5033276;28;20037;-73
2021/11/08 08:57:24;;;;;;;16.67;5.33;;;;;;;9.69;83.51;96746.03;5005531;28;20062;-73
2021/11/08 08:59:50;;;;;;;18.77;5.57;;;;;;;9.90;84.38;96745.88;5032874;28;20055;-72
2021/11/08 09:02:16;;;;;;;15.93;5.47;;;;;;;11.21;78.66;96736.91;5034460;28;20036;-73
2021/11/08 09:04:42;;;;;;;13.77;5.17;;;;;;;10.79;80.05;96745.38;5023319;28;20036;-73
2021/11/08 09:07:09;;;;;;;10.47;4.40;;;;;;;11.85;74.72;96733.16;5037590;28;20094;-73
2021/11/08 09:09:38;;;;;;;12.53;4.30;;;;;;;11.20;75.86;96743.13;5021623;28;20539;-73
2021/11/08 09:12:05;;;;;;;13.63;5.03;;;;;;;12.17;73.95;96743.09;5026487;28;20040;-74
2021/11/08 09:14:32;;;;;;;21.63;7.77;;;;;;;12.57;72.86;96749.50;5017472;28;20051;-74
2021/11/08 09:16:59;;;;;;;15.07;5.93;;;;;;;12.50;72.33;96736.13;5020770;28;20025;-74
2021/11/08 09:19:25;;;;;;;17.70;8.90;;;;;;;12.59;70.87;96737.00;5023333;28;20414;-74
2021/11/08 09:21:50;;;;;;;15.07;5.57;;;;;;;12.93;71.51;96739.56;5018704;28;20044;-75
2021/11/08 09:24:17;;;;;;;12.97;4.73;;;;;;;13.16;71.23;96752.16;5012802;28;20025;-74
2021/11/08 09:26:43;;;;;;;13.73;4.40;;;;;;;12.91;70.03;96751.28;5033615;28;20033;-74
2021/11/08 09:29:09;;;;;;;12.63;4.63;;;;;;;10.66;76.79;96752.78;5040144;28;20045;-74
2021/11/08 09:31:35;;;;;;;14.20;4.17;;;;;;;9.46;84.75;96766.53;5033446;28;20402;-74
2021/11/08 09:34:05;;;;;;;15.10;4.80;;;;;;;9.06;89.88;96770.13;5014511;28;20033;-74
2021/11/08 09:36:33;;;;;;;11.67;5.00;;;;;;;9.43;87.32;96770.25;5037636;28;20035;-73
2021/11/08 09:39:00;;;;;;;14.87;4.70;;;;;;;10.30;82.59;96765.84;5036057;28;20033;-74
2021/11/08 09:41:34;;;;;;;13.70;4.13;;;;;;;10.74;81.66;96755.50;5032844;28;20045;-74
2021/11/08 09:44:02;;;;;;;15.37;4.67;;;;;;;11.65;74.77;96750.13;5023078;28;20052;-74
2021/11/08 09:46:29;;;;;;;11.87;3.87;;;;;;;12.34;71.77;96749.28;5034633;28;20116;-73
2021/11/08 09:48:55;;;;;;;11.17;4.30;;;;;;;12.73;70.27;96752.22;5004215;28;20393;-74
2021/11/08 09:51:22;;;;;;;10.90;4.13;;;;;;;10.91;76.74;96761.78;5042016;28;20022;-73
2021/11/08 09:53:48;;;;;;;15.30;4.50;;;;;;;10.79;79.47;96758.50;5010292;28;20126;-74
2021/11/08 09:56:15;;;;;;;18.80;6.33;;;;;;;10.19;82.62;96769.41;5021755;28;20033;-74
2021/11/08 09:58:41;;;;;;;17.83;5.27;;;;;;;9.49;87.39;96768.03;5015876;28;20042;-74
2021/11/08 10:01:11;;;;;;;11.87;4.53;;;;;;;9.68;86.33;96771.47;5018185;28;20163;-74
2021/11/08 10:03:38;;;;;;;15.83;4.60;;;;;;;9.58;88.06;96775.09;5014587;28;20051;-74
2021/11/08 10:06:05;;;;;;;10.87;3.90;;;;;;;9.39;88.50;96775.94;5004983;28;20025;-74
2021/11/08 10:08:37;;;;;;;10.57;4.50;;;;;;;9.27;90.49;96780.47;5020897;28;20113;-73
2021/11/08 10:11:07;;;;;;;11.60;4.17;;;;;;;8.64;92.58;96772.91;5028717;28;20758;-73
2021/11/08 10:13:34;;;;;;;11.07;4.93;;;;;;;8.59;93.13;96769.06;5041030;28;20032;-74
2021/11/08 10:16:09;;;;;;;12.87;4.97;;;;;;;8.73;95.81;96780.00;5029093;28;20037;-73
2021/11/08 10:18:38;;;;;;;13.93;5.03;;;;;;;9.19;94.91;96775.94;5021581;28;20034;-73
2021/11/08 10:21:11;;;;;;;16.37;4.37;;;;;;;10.41;82.88;96763.00;5023167;28;20030;-73
2021/11/08 10:23:44;;;;;;;7.40;2.80;;;;;;;9.93;82.53;96769.25;5024467;28;20037;-73
2021/11/08 10:26:18;;;;;;;15.37;3.83;;;;;;;10.53;79.91;96761.84;5039092;28;20028;-73
2021/11/08 10:28:51;;;;;;;11.68;4.28;;;;;;;11.28;74.49;96756.38;5012751;28;20605;-73
2021/11/08 10:31:17;;;;;;;11.88;3.85;;;;;;;11.79;72.61;96762.72;5029270;28;20091;-74
2021/11/08 10:33:44;;;;;;;12.87;4.20;;;;;;;11.78;71.36;96758.44;5034365;28;20033;-74
2021/11/08 10:36:18;;;;;;;14.10;4.00;;;;;;;12.50;69.16;96754.59;5012338;28;20179;-74
2021/11/08 10:38:48;;;;;;;10.10;3.00;;;;;;;13.25;66.44;96768.91;5020540;28;20021;-74
2021/11/08 10:41:26;;;;;;;11.83;3.43;;;;;;;13.35;63.38;96765.09;5039503;28;20842;-74
2021/11/08 10:43:58;;;;;;;14.80;3.97;;;;;;;13.54;62.22;96756.03;5010188;28;20065;-73
2021/11/08 10:46:27;;;;;;;9.67;3.23;;;;;;;12.64;67.52;96763.75;5034248;28;20133;-73
2021/11/08 10:49:00;;;;;;;14.50;3.77;;;;;;;12.09;69.46;96772.03;5018601;28;20025;-74
2021/11/08 10:51:29;;;;;;;;;;;;;;;11.51;71.04;96773.38;5041885;28;20063;-74
2021/11/08 10:54:02;;;;;;;11.33;3.60;;;;;;;10.60;76.32;96778.72;5015337;28;19916;-73
2021/11/08 10:56:29;;;;;;;12.55;3.88;;;;;;;10.76;74.33;96780.69;5016296;28;20128;-73
2021/11/08 10:58:58;;;;;;;14.60;3.13;;;;;;;10.44;78.21;96783.75;5034905;28;20060;-74
2021/11/08 11:01:33;;;;;;;14.43;3.80;;;;;;;10.13;79.81;96785.78;5012153;28;20022;-73
2021/11/08 11:04:02;;;;;;;14.70;3.50;;;;;;;10.20;80.15;96786.03;5026988;28;20061;-73
2021/11/08 11:06:45;;;;;;;13.57;3.87;;;;;;;9.51;85.84;96781.88;5010583;28;20084;-74
2021/11/08 11:09:22;;;;;;;13.07;4.30;;;;;;;9.60;85.35;96784.50;5012828;28;20043;-73
2021/11/08 11:12:03;;;;;;;15.13;4.27;;;;;;;9.38;86.56;96796.09;5009956;28;20134;-75
2021/11/08 11:14:45;;;;;;;17.77;6.13;;;;;;;9.50;89.23;96781.03;5029949;28;20038;-75
2021/11/08 11:17:14;;;;;;;25.73;11.30;;;;;;;9.42;88.25;96786.13;5023371;28;20033;-74
2021/11/08 11:19:39;;;;;;;14.17;4.87;;;;;;;9.57;88.12;96779.50;5033067;28;20464;-74
2021/11/08 11:22:10;;;;;;;14.00;4.20;;;;;;;9.58;87.83;96781.16;5020700;28;20513;-74
2021/11/08 11:24:42;;;;;;;17.70;4.50;;;;;;;9.77;87.18;96779.50;5038593;28;20035;-74
2021/11/08 11:27:16;;;;;;;10.60;3.87;;;;;;;9.12;89.31;96776.59;5032853;28;20037;-74
2021/11/08 11:29:42;;;;;;;10.53;3.30;;;;;;;8.87;91.60;96777.94;5028166;28;20029;-73
2021/11/08 11:32:25;;;;;;;12.20;3.53;;;;;;;8.88;89.51;96780.44;5027624;28;20021;-73
2021/11/08 11:34:52;;;;;;;14.43;5.20;;;;;;;9.16;87.56;96776.19;5030736;28;20032;-74
2021/11/08 11:37:21;;;;;;;11.67;3.33;;;;;;;9.09;89.23;96788.22;5017583;28;20026;-74
2021/11/08 11:39:47;;;;;;;12.20;3.70;;;;;;;8.60;91.15;96783.81;5018149;28;20044;-74
2021/11/08 11:42:13;;;;;;;14.50;4.70;;;;;;;8.73;90.72;96787.84;5040379;28;20053;-73
2021/11/08 11:44:39;;;;;;;14.43;4.10;;;;;;;8.98;91.18;96791.75;5026229;28;20473;-75
2021/11/08 11:47:17;;;;;;;15.17;5.40;;;;;;;8.84;90.70;96786.91;5028436;28;20082;-74
2021/11/08 11:49:44;;;;;;;17.13;3.57;;;;;;;8.58;90.28;96786.56;5010151;28;21002;-74
2021/11/08 11:52:10;;;;;;;17.50;4.53;;;;;;;8.46;92.13;96785.03;5013218;28;20047;-74
2021/11/08 11:54:38;;;;;;;30.03;6.70;;;;;;;8.82;89.10;96782.75;5012869;28;20484;-75
2021/11/08 11:57:05;;;;;;;14.00;4.43;;;;;;;8.71;91.70;96776.66;5038225;28;20186;-74
2021/11/08 11:59:31;;;;;;;14.10;4.73;;;;;;;8.73;90.40;96782.63;5018316;28;20025;-74
2021/11/08 12:01:58;;;;;;;16.80;7.73;;;;;;;9.04;90.14;96779.09;5034835;28;20041;-74
2021/11/08 12:04:26;;;;;;;14.60;5.03;;;;;;;9.05;89.63;96783.34;5014646;28;20037;-75
2021/11/08 12:06:58;;;;;;;12.97;3.97;;;;;;;8.54;92.01;96779.94;5013879;28;20750;-75
2021/11/08 12:09:24;;;;;;;12.90;3.90;;;;;;;8.56;90.24;96767.53;5040840;28;20029;-74
2021/11/08 12:11:53;;;;;;;12.30;4.33;;;;;;;8.56;91.89;96772.78;4999265;28;20059;-75
2021/11/08 12:14:22;;;;;;;15.40;3.73;;;;;;;8.44;90.75;96773.81;5019959;28;20044;-75
2021/11/08 12:17:00;;;;;;;16.67;3.80;;;;;;;8.57;90.17;96766.56;4995176;28;20123;-75
2021/11/08 12:19:38;;;;;;;12.63;3.57;;;;;;;8.79;89.48;96762.06;5014229;28;20537;-74
2021/11/08 12:22:17;;;;;;;9.93;3.50;;;;;;;8.73;89.50;96760.81;5017991;28;20418;-75
2021/11/08 12:24:55;;;;;;;14.67;4.43;;;;;;;8.61;89.40;96767.13;5014114;28;20115;-74
2021/11/08 12:27:43;;;;;;;11.63;4.03;;;;;;;8.54;91.05;96766.00;5030270;28;20029;-75
2021/11/08 12:30:30;;;;;;;10.40;4.53;;;;;;;8.50;89.43;96763.63;5009810;28;20060;-73
2021/11/08 12:33:09;;;;;;;11.23;3.80;;;;;;;8.37;92.18;96757.78;5007970;28;20928;-74
2021/11/08 12:35:40;;;;;;;10.47;3.87;;;;;;;8.35;92.56;96758.84;5038262;28;20024;-72
2021/11/08 12:38:26;;;;;;;11.07;3.57;;;;;;;8.20;90.67;96767.09;5007885;28;20584;-72
2021/11/08 12:41:15;;;;;;;11.47;3.67;;;;;;;8.30;89.92;96753.19;5022871;28;20029;-72
2021/11/08 12:43:49;;;;;;;13.10;3.40;;;;;;;8.16;90.55;96757.84;5018855;28;20069;-73
2021/11/08 12:46:22;;;;;;;11.77;3.70;;;;;;;8.39;89.12;96755.88;4994473;28;20052;-73
2021/11/08 12:48:50;;;;;;;16.52;4.78;;;;;;;8.31;89.80;96755.69;5015805;28;20041;-73
2021/11/08 12:51:18;;;;;;;15.37;3.93;;;;;;;8.43;91.19;96748.59;5029331;28;20477;-73
2021/11/08 12:53:47;;;;;;;18.17;4.07;;;;;;;8.53;88.72;96744.19;5015673;28;20178;-73
2021/11/08 12:56:21;;;;;;;14.50;3.80;;;;;;;8.66;88.07;96738.72;5011632;28;20497;-73
2021/11/08 12:58:52;;;;;;;8.67;3.60;;;;;;;8.43;87.11;96741.56;5034327;28;20120;-74
2021/11/08 13:01:20;;;;;;;10.00;3.03;;;;;;;8.39;85.79;96744.59;4999944;28;20059;-72
2021/11/08 13:03:51;;;;;;;10.07;3.30;;;;;;;8.40;85.89;96748.84;5005229;28;20033;-72
2021/11/08 13:06:31;;;;;;;13.97;3.40;;;;;;;7.89;86.32;96749.72;5017706;28;20419;-72
2021/11/08 13:09:14;;;;;;;11.57;3.40;;;;;;;8.09;86.71;96743.59;5013026;28;20041;-73
2021/11/08 13:11:43;;;;;;;6.65;2.45;;;;;;;8.06;88.29;96754.34;5020416;28;20028;-72
2021/11/08 13:14:19;;;;;;;21.83;8.97;;;;;;;8.21;88.35;96741.72;5017136;28;20427;-74